createdAt,value
2023-01-21T00:01:18.039Z,34.77
2023-01-21T00:03:46.387Z,35.73
2023-01-21T00:06:17.781Z,30.80
2023-01-21T00:08:45.105Z,31.93
2023-01-21T00:11:15.331Z,31.07
2023-01-21T00:13:44.110Z,27.95
2023-01-21T00:16:12.918Z,29.33
2023-01-21T00:18:40.434Z,35.57
2023-01-21T00:21:07.699Z,30.87
2023-01-21T00:23:34.965Z,35.33
2023-01-21T00:26:05.774Z,30.50
2023-01-21T00:31:05.046Z,30.80
2023-01-21T00:33:33.705Z,28.77
2023-01-21T00:36:10.715Z,31.40
2023-01-21T00:38:38.379Z,33.57
2023-01-21T00:41:09.173Z,29.73
2023-01-21T00:46:04.238Z,31.00
2023-01-21T00:48:32.227Z,24.87
2023-01-21T00:51:02.544Z,28.43
2023-01-21T00:53:33.019Z,33.30
2023-01-21T00:56:02.626Z,33.13
2023-01-21T00:58:31.153Z,27.20
2023-01-21T01:01:13.957Z,27.17
2023-01-21T01:03:42.123Z,29.80
2023-01-21T01:06:15.123Z,29.30
2023-01-21T01:08:43.401Z,26.23
2023-01-21T01:11:12.939Z,30.10
2023-01-21T01:13:40.977Z,29.63
2023-01-21T01:16:10.051Z,31.63
2023-01-21T01:18:38.046Z,28.23
2023-01-21T01:21:09.012Z,26.97
2023-01-21T01:23:36.612Z,30.43
2023-01-21T01:26:07.752Z,35.30
2023-01-21T01:28:35.227Z,27.23
2023-01-21T01:31:07.255Z,29.23
2023-01-21T01:33:35.368Z,35.57
2023-01-21T01:36:09.297Z,30.50
2023-01-21T01:38:36.684Z,30.03
2023-01-21T01:41:04.525Z,27.97
2023-01-21T01:44:03.551Z,29.53
2023-01-21T01:46:34.526Z,34.70
2023-01-21T01:49:18.423Z,28.87
2023-01-21T01:51:59.434Z,29.27
2023-01-21T01:54:36.583Z,24.97
2023-01-21T01:57:08.646Z,22.63
2023-01-21T01:59:36.554Z,26.50
2023-01-21T02:02:09.796Z,27.23
2023-01-21T02:04:58.284Z,27.77
2023-01-21T02:07:29.060Z,29.03
2023-01-21T02:12:23.903Z,21.83
2023-01-21T02:14:51.459Z,28.23
2023-01-21T02:18:02.743Z,24.80
2023-01-21T02:21:03.496Z,23.07
2023-01-21T02:24:13.824Z,24.45
2023-01-21T02:27:30.011Z,28.77
2023-01-21T02:30:34.369Z,23.43
2023-01-21T02:33:16.132Z,19.23
2023-01-21T02:36:14.568Z,26.47
2023-01-21T02:39:22.085Z,25.30
2023-01-21T02:42:33.489Z,27.17
2023-01-21T02:45:51.603Z,25.07
2023-01-21T02:48:32.240Z,25.23
2023-01-21T02:50:59.771Z,29.23
2023-01-21T02:53:37.283Z,25.27
2023-01-21T02:56:19.091Z,23.37
2023-01-21T02:59:02.439Z,30.17
2023-01-21T03:02:07.958Z,25.50
2023-01-21T03:04:51.766Z,22.10
2023-01-21T03:07:44.827Z,28.93
2023-01-21T03:10:27.293Z,30.60
2023-01-21T03:13:41.127Z,33.90
2023-01-21T03:16:31.178Z,32.63
2023-01-21T03:19:04.523Z,35.30
2023-01-21T03:21:34.434Z,40.37
2023-01-21T03:24:02.674Z,35.60
2023-01-21T03:26:44.277Z,35.57
2023-01-21T03:29:24.243Z,40.40
2023-01-21T03:31:58.065Z,41.45
2023-01-21T03:34:29.944Z,36.30
2023-01-21T03:37:00.973Z,42.70
2023-01-21T03:40:05.511Z,38.83
2023-01-21T03:42:33.025Z,37.33
2023-01-21T03:45:00.541Z,34.67
2023-01-21T03:47:34.742Z,32.57
2023-01-21T03:50:16.741Z,36.53
2023-01-21T03:52:45.793Z,40.50
2023-01-21T03:55:16.583Z,37.27
2023-01-21T04:00:16.964Z,31.83
2023-01-21T04:02:44.576Z,31.40
2023-01-21T04:05:11.789Z,33.47
2023-01-21T04:07:38.974Z,28.57
2023-01-21T04:10:07.287Z,31.00
2023-01-21T04:12:34.401Z,34.83
2023-01-21T04:15:04.158Z,32.50
2023-01-21T04:17:32.558Z,32.20
2023-01-21T04:19:59.760Z,35.03
2023-01-21T04:22:27.000Z,34.03
2023-01-21T04:24:54.192Z,29.50
2023-01-21T04:27:21.389Z,31.73
2023-01-21T04:29:48.651Z,35.97
2023-01-21T04:32:16.075Z,27.27
2023-01-21T04:34:43.429Z,36.23
2023-01-21T04:37:10.659Z,31.87
2023-01-21T04:39:37.998Z,32.97
2023-01-21T04:42:05.386Z,30.13
2023-01-21T04:44:32.636Z,33.77
2023-01-21T04:46:59.874Z,28.03
2023-01-21T04:49:27.207Z,31.10
2023-01-21T04:51:54.428Z,29.57
2023-01-21T04:54:22.874Z,34.67
2023-01-21T04:56:50.160Z,35.97
2023-01-21T04:59:17.348Z,29.63
2023-01-21T05:01:44.647Z,38.53
2023-01-21T05:04:11.923Z,26.40
2023-01-21T05:06:39.206Z,27.80
2023-01-21T05:09:06.514Z,27.40
2023-01-21T05:11:33.832Z,31.43
2023-01-21T05:14:01.109Z,29.93
2023-01-21T05:16:28.362Z,27.43
2023-01-21T05:18:55.588Z,32.67
2023-01-21T05:21:22.919Z,30.83
2023-01-21T05:23:50.208Z,29.60
2023-01-21T05:26:17.577Z,29.33
2023-01-21T05:28:44.938Z,28.23
2023-01-21T05:31:12.350Z,34.13
2023-01-21T05:33:39.628Z,32.53
2023-01-21T05:36:07.515Z,33.53
2023-01-21T05:38:34.758Z,34.13
2023-01-21T05:41:04.132Z,33.03
2023-01-21T05:43:31.968Z,37.23
2023-01-21T05:46:00.020Z,34.20
2023-01-21T05:48:29.597Z,28.97
2023-01-21T05:50:58.450Z,33.70
2023-01-21T05:53:26.240Z,29.27
2023-01-21T05:55:57.390Z,36.73
2023-01-21T05:58:25.561Z,36.43
2023-01-21T06:00:53.554Z,39.97
2023-01-21T06:03:20.895Z,30.03
2023-01-21T06:05:49.871Z,34.83
2023-01-21T06:08:18.023Z,38.13
2023-01-21T06:10:45.575Z,36.73
2023-01-21T06:13:14.858Z,43.37
2023-01-21T06:15:42.330Z,35.73
2023-01-21T06:18:09.583Z,33.80
2023-01-21T06:20:37.451Z,38.37
2023-01-21T06:23:05.267Z,34.87
2023-01-21T06:25:33.617Z,31.40
2023-01-21T06:28:01.320Z,35.37
2023-01-21T06:30:28.826Z,35.20
2023-01-21T06:32:56.154Z,35.53
2023-01-21T06:35:23.454Z,37.13
2023-01-21T06:37:51.307Z,36.23
2023-01-21T06:40:18.887Z,35.87
2023-01-21T06:42:49.855Z,39.77
2023-01-21T06:47:45.441Z,37.13
2023-01-21T06:50:18.064Z,38.97
2023-01-21T06:52:47.966Z,38.03
2023-01-21T06:55:16.733Z,34.77
2023-01-21T06:57:44.704Z,38.70
2023-01-21T07:00:13.348Z,39.30
2023-01-21T07:02:41.153Z,37.87
2023-01-21T07:05:08.828Z,37.50
2023-01-21T07:07:36.431Z,38.47
2023-01-21T07:10:04.519Z,48.63
2023-01-21T07:12:31.944Z,39.17
2023-01-21T07:14:59.238Z,41.50
2023-01-21T07:17:26.621Z,45.13
2023-01-21T07:19:53.975Z,44.13
2023-01-21T07:22:21.434Z,44.37
2023-01-21T07:24:48.912Z,41.80
2023-01-21T07:27:16.364Z,34.87
2023-01-21T07:29:43.718Z,40.07
2023-01-21T07:32:11.130Z,35.43
2023-01-21T07:34:40.692Z,35.93
2023-01-21T07:37:07.968Z,32.97
2023-01-21T07:39:35.332Z,29.17
2023-01-21T07:42:02.768Z,36.67
2023-01-21T07:44:30.351Z,31.80
2023-01-21T07:46:57.763Z,30.17
2023-01-21T07:49:25.148Z,30.47
2023-01-21T07:51:57.636Z,32.03
2023-01-21T07:54:25.240Z,32.27
2023-01-21T07:56:52.792Z,28.03
2023-01-21T07:59:20.185Z,29.23
2023-01-21T08:01:47.460Z,30.63
2023-01-21T08:04:15.078Z,32.97
2023-01-21T08:06:42.508Z,27.57
2023-01-21T08:09:10.583Z,29.83
2023-01-21T08:11:37.921Z,31.27
2023-01-21T08:14:05.734Z,38.53
2023-01-21T08:16:33.101Z,28.73
2023-01-21T08:19:02.750Z,26.57
2023-01-21T08:21:33.175Z,29.40
2023-01-21T08:24:00.530Z,29.67
2023-01-21T08:26:27.843Z,29.27
2023-01-21T08:28:55.325Z,30.73
2023-01-21T08:31:25.237Z,26.73
2023-01-21T08:33:52.574Z,25.75
2023-01-21T08:36:19.875Z,26.77
2023-01-21T08:38:48.803Z,25.47
2023-01-21T08:41:17.852Z,26.03
2023-01-21T08:43:45.263Z,27.37
2023-01-21T08:46:13.196Z,24.83
2023-01-21T08:48:40.725Z,24.73
2023-01-21T08:51:08.098Z,26.30
2023-01-21T08:53:35.844Z,24.37
2023-01-21T08:56:05.099Z,25.60
2023-01-21T08:58:32.810Z,25.80
2023-01-21T09:01:07.883Z,22.33
2023-01-21T09:03:35.253Z,20.87
2023-01-21T09:06:06.680Z,27.80
2023-01-21T09:08:33.991Z,25.17
2023-01-21T09:11:02.766Z,20.00
2023-01-21T09:13:40.366Z,26.77
2023-01-21T09:16:16.350Z,23.63
2023-01-21T09:18:44.066Z,22.30
2023-01-21T09:21:18.899Z,25.23
2023-01-21T09:23:46.178Z,21.47
2023-01-21T09:26:22.578Z,23.20
2023-01-21T09:28:59.860Z,25.10
2023-01-21T09:31:30.143Z,25.57
2023-01-21T09:34:01.345Z,24.23
2023-01-21T09:36:32.332Z,24.07
2023-01-21T09:39:00.362Z,23.90
2023-01-21T09:41:46.295Z,24.73
2023-01-21T09:44:44.986Z,22.47
2023-01-21T09:47:37.547Z,23.60
2023-01-21T09:50:16.689Z,25.73
2023-01-21T09:52:48.877Z,23.40
2023-01-21T09:55:23.739Z,23.00
2023-01-21T09:58:32.169Z,25.20
2023-01-21T10:01:03.564Z,23.50
2023-01-21T10:03:54.852Z,26.63
2023-01-21T10:06:45.370Z,26.20
2023-01-21T10:09:42.014Z,24.38
2023-01-21T10:12:30.362Z,23.43
2023-01-21T10:15:55.592Z,29.97
2023-01-21T10:18:31.730Z,23.67
2023-01-21T10:21:19.542Z,23.27
2023-01-21T10:23:57.579Z,25.27
2023-01-21T10:26:27.302Z,27.30
2023-01-21T10:28:55.865Z,27.23
2023-01-21T10:31:29.298Z,24.73
2023-01-21T10:33:56.921Z,25.50
2023-01-21T10:36:48.943Z,30.83
2023-01-21T10:39:46.542Z,26.63
2023-01-21T10:42:57.510Z,37.07
2023-01-21T10:46:20.616Z,30.17
2023-01-21T10:49:08.235Z,29.33
2023-01-21T10:51:42.938Z,29.33
2023-01-21T10:54:16.723Z,29.77
2023-01-21T10:57:09.829Z,29.97
2023-01-21T10:59:39.546Z,28.23
2023-01-21T11:02:10.159Z,29.70
2023-01-21T11:04:41.956Z,37.03
2023-01-21T11:07:15.367Z,35.43
2023-01-21T11:09:47.011Z,31.33
2023-01-21T11:12:22.285Z,33.83
2023-01-21T11:15:14.775Z,34.37
2023-01-21T11:17:45.812Z,29.77
2023-01-21T11:20:21.855Z,32.63
2023-01-21T11:22:50.400Z,29.17
2023-01-21T11:25:36.897Z,29.90
2023-01-21T11:28:21.198Z,27.03
2023-01-21T11:30:51.433Z,29.13
2023-01-21T11:33:28.572Z,31.25
2023-01-21T11:35:56.417Z,30.80
2023-01-21T11:38:33.206Z,28.73
2023-01-21T11:41:12.314Z,26.63
2023-01-21T11:43:45.766Z,31.00
2023-01-21T11:46:33.998Z,30.90
2023-01-21T11:49:07.488Z,30.07
2023-01-21T11:51:40.589Z,31.60
2023-01-21T11:54:24.667Z,32.93
2023-01-21T11:57:00.123Z,28.27
2023-01-21T11:59:41.842Z,31.33
2023-01-21T12:02:29.498Z,30.20
2023-01-21T12:05:12.201Z,28.53
2023-01-21T12:07:42.608Z,31.23
2023-01-21T12:10:13.038Z,34.25
2023-01-21T12:12:55.148Z,34.63
2023-01-21T12:15:43.998Z,28.70
2023-01-21T12:18:37.107Z,33.03
2023-01-21T12:21:37.396Z,34.23
2023-01-21T12:24:43.395Z,29.90
2023-01-21T12:27:43.540Z,31.07
2023-01-21T12:30:51.009Z,29.42
2023-01-21T12:33:46.347Z,32.60
2023-01-21T12:36:26.395Z,31.90
2023-01-21T12:39:18.738Z,39.65
2023-01-21T12:42:06.440Z,34.67
2023-01-21T12:45:07.266Z,34.23
2023-01-21T12:47:52.637Z,31.20
2023-01-21T12:50:52.895Z,35.23
2023-01-21T12:53:32.969Z,33.30
2023-01-21T12:56:27.481Z,35.78
2023-01-21T12:59:09.498Z,37.80
2023-01-21T13:01:48.981Z,37.77
2023-01-21T13:04:25.809Z,36.13
2023-01-21T13:07:41.577Z,35.50
2023-01-21T13:10:27.596Z,36.77
2023-01-21T13:13:28.082Z,38.27
2023-01-21T13:16:05.586Z,44.03
2023-01-21T13:18:37.741Z,42.07
2023-01-21T13:21:37.839Z,42.57
2023-01-21T13:24:30.061Z,40.28
2023-01-21T13:27:13.339Z,45.93
2023-01-21T13:30:27.577Z,37.30
2023-01-21T13:33:22.895Z,42.07
2023-01-21T13:36:14.381Z,42.63
2023-01-21T13:38:57.102Z,39.93
2023-01-21T13:41:40.865Z,43.00
2023-01-21T13:44:33.601Z,38.10
2023-01-21T13:47:18.590Z,41.53
2023-01-21T13:50:15.397Z,38.93
2023-01-21T13:53:31.035Z,47.37
2023-01-21T13:56:39.396Z,33.07
2023-01-21T13:59:16.078Z,37.30
2023-01-21T14:01:53.979Z,41.43
2023-01-21T14:04:55.630Z,36.87
2023-01-21T14:07:42.866Z,42.47
2023-01-21T14:10:18.335Z,42.40
2023-01-21T14:13:17.772Z,43.63
2023-01-21T14:16:31.575Z,43.77
2023-01-21T14:19:58.569Z,43.50
2023-01-21T14:22:51.833Z,36.73
2023-01-21T14:25:33.526Z,48.03
2023-01-21T14:28:26.127Z,39.83
2023-01-21T14:31:23.737Z,38.67
2023-01-21T14:34:03.341Z,40.33
2023-01-21T14:37:06.420Z,39.33
2023-01-21T14:40:11.926Z,46.83
2023-01-21T14:42:51.278Z,46.40
2023-01-21T14:45:22.635Z,47.70
2023-01-21T14:47:57.951Z,40.80
2023-01-21T14:50:47.148Z,43.30
2023-01-21T14:53:27.913Z,42.57
2023-01-21T14:56:23.504Z,44.83
2023-01-21T14:59:13.315Z,43.70
2023-01-21T15:01:48.515Z,40.23
2023-01-21T15:04:29.082Z,46.37
2023-01-21T15:07:09.586Z,49.60
2023-01-21T15:09:47.248Z,43.13
2023-01-21T15:12:22.747Z,46.57
2023-01-21T15:14:54.586Z,43.60
2023-01-21T15:17:45.007Z,44.37
2023-01-21T15:20:43.028Z,48.53
2023-01-21T15:23:20.522Z,55.07
2023-01-21T15:26:20.560Z,48.90
2023-01-21T15:28:55.944Z,54.70
2023-01-21T15:31:26.246Z,49.23
2023-01-21T15:34:07.230Z,51.92
2023-01-21T15:39:16.582Z,52.07
2023-01-21T15:42:09.326Z,53.80
2023-01-21T15:45:23.837Z,57.70
2023-01-21T15:48:04.881Z,57.23
2023-01-21T15:51:06.653Z,64.40
2023-01-21T15:54:07.716Z,57.00
2023-01-21T16:00:04.128Z,52.07
2023-01-21T16:03:12.982Z,68.53
2023-01-21T16:06:11.585Z,70.23
2023-01-21T16:09:07.508Z,63.30
2023-01-21T16:12:06.540Z,56.50
2023-01-21T16:14:45.799Z,59.03
2023-01-21T16:17:44.099Z,53.53
2023-01-21T16:20:12.762Z,53.30
2023-01-21T16:22:47.026Z,66.47
2023-01-21T16:25:19.392Z,61.20
2023-01-21T16:27:49.574Z,57.13
2023-01-21T16:30:22.602Z,64.97
2023-01-21T16:33:15.738Z,64.20
2023-01-21T16:35:56.154Z,61.37
2023-01-21T16:38:34.094Z,55.97
2023-01-21T16:41:07.391Z,46.33
2023-01-21T16:43:38.163Z,67.80
2023-01-21T16:48:39.843Z,85.47
2023-01-21T16:51:14.398Z,76.63
2023-01-21T16:53:42.066Z,84.80
2023-01-21T16:56:29.433Z,76.73
2023-01-21T16:58:56.999Z,63.23
2023-01-21T17:01:31.191Z,60.87
2023-01-21T17:04:01.307Z,67.43
2023-01-21T17:06:31.790Z,68.95
2023-01-21T17:09:07.227Z,71.50
2023-01-21T17:11:36.752Z,71.40
2023-01-21T17:14:10.279Z,70.30
2023-01-21T17:16:40.538Z,64.27
2023-01-21T17:19:31.644Z,77.75
2023-01-21T17:22:03.262Z,70.90
2023-01-21T17:24:43.923Z,67.20
2023-01-21T17:27:18.354Z,57.22
2023-01-21T17:29:45.604Z,61.63
2023-01-21T17:32:33.555Z,68.27
2023-01-21T17:35:19.987Z,66.67
2023-01-21T17:38:05.596Z,69.27
2023-01-21T17:40:42.443Z,61.53
2023-01-21T17:43:28.148Z,64.73
2023-01-21T17:45:57.513Z,64.07
2023-01-21T17:48:32.203Z,66.10
2023-01-21T17:51:16.407Z,71.40
2023-01-21T17:53:55.620Z,64.70
2023-01-21T17:56:48.022Z,63.83
2023-01-21T17:59:34.363Z,64.37
2023-01-21T18:02:03.760Z,67.03
2023-01-21T18:04:34.210Z,62.07
2023-01-21T18:07:02.198Z,68.70
2023-01-21T18:09:30.384Z,61.07
2023-01-21T18:11:58.317Z,63.37
2023-01-21T18:14:26.983Z,72.07
2023-01-21T18:16:54.925Z,60.50
2023-01-21T18:19:37.791Z,67.23
2023-01-21T18:22:07.382Z,68.23
2023-01-21T18:24:35.651Z,67.97
2023-01-21T18:27:03.466Z,79.10
2023-01-21T18:29:31.254Z,68.07
2023-01-21T18:32:01.420Z,65.17
2023-01-21T18:34:29.198Z,65.18
2023-01-21T18:36:57.827Z,69.53
2023-01-21T18:39:25.363Z,66.03
2023-01-21T18:41:52.660Z,69.67
2023-01-21T18:44:20.007Z,67.03
2023-01-21T18:46:47.955Z,59.40
2023-01-21T18:49:18.300Z,61.90
2023-01-21T18:51:46.702Z,65.40
2023-01-21T18:54:15.824Z,68.73
2023-01-21T18:56:44.313Z,75.13
2023-01-21T18:59:20.253Z,68.73
2023-01-21T19:01:47.542Z,63.03
2023-01-21T19:04:18.957Z,62.23
2023-01-21T19:06:48.033Z,69.67
2023-01-21T19:09:22.878Z,73.27
2023-01-21T19:11:51.668Z,89.90
2023-01-21T19:14:19.283Z,78.53
2023-01-21T19:16:46.968Z,76.07
2023-01-21T19:19:19.225Z,80.20
2023-01-21T19:21:46.777Z,87.37
2023-01-21T19:24:14.254Z,86.83
2023-01-21T19:26:41.704Z,89.67
2023-01-21T19:29:15.979Z,88.53
2023-01-21T19:31:43.436Z,97.00
2023-01-21T19:34:11.041Z,85.43
2023-01-21T19:36:39.439Z,89.90
2023-01-21T19:39:17.844Z,98.10
2023-01-21T19:41:45.480Z,104.70
2023-01-21T19:44:12.853Z,109.07
2023-01-21T19:46:40.433Z,112.27
2023-01-21T19:49:17.281Z,133.70
2023-01-21T19:51:44.970Z,182.60
2023-01-21T19:54:12.296Z,115.23
2023-01-21T19:56:39.697Z,114.37
2023-01-21T19:59:07.311Z,113.27
2023-01-21T20:01:34.703Z,174.50
2023-01-21T20:04:02.103Z,214.67
2023-01-21T20:06:38.170Z,268.50
2023-01-21T20:09:06.409Z,215.77
2023-01-21T20:11:34.106Z,178.00
2023-01-21T20:14:01.604Z,185.07
2023-01-21T20:16:31.214Z,160.60
2023-01-21T20:19:02.204Z,182.63
2023-01-21T20:21:29.615Z,196.27
2023-01-21T20:23:56.788Z,181.03
2023-01-21T20:26:27.720Z,163.80
2023-01-21T20:28:55.297Z,187.90
2023-01-21T20:31:22.855Z,174.67
2023-01-21T20:33:50.331Z,176.40
2023-01-21T20:36:22.141Z,158.13
2023-01-21T20:38:49.436Z,147.13
2023-01-21T20:41:16.792Z,117.40
2023-01-21T20:43:44.159Z,120.87
2023-01-21T20:46:22.321Z,114.37
2023-01-21T20:48:51.764Z,115.90
2023-01-21T20:51:21.072Z,127.13
2023-01-21T20:53:48.642Z,120.67
2023-01-21T20:56:23.856Z,129.37
2023-01-21T20:58:51.671Z,124.47
2023-01-21T21:01:22.182Z,123.03
2023-01-21T21:03:50.584Z,132.68
2023-01-21T21:06:31.491Z,138.13
2023-01-21T21:11:26.266Z,132.57
2023-01-21T21:13:53.761Z,140.47
2023-01-21T21:16:28.710Z,153.93
2023-01-21T21:19:00.681Z,211.03
2023-01-21T21:21:28.390Z,285.63
2023-01-21T21:23:55.775Z,312.20
2023-01-21T21:26:27.081Z,278.27
2023-01-21T21:28:55.149Z,177.43
2023-01-21T21:31:23.632Z,159.73
2023-01-21T21:33:51.132Z,156.70
2023-01-21T21:36:23.182Z,150.47
2023-01-21T21:38:52.440Z,144.47
2023-01-21T21:41:42.925Z,142.17
2023-01-21T21:44:11.078Z,145.68
2023-01-21T21:46:57.621Z,129.23
2023-01-21T21:49:25.632Z,132.60
2023-01-21T21:51:53.166Z,132.53
2023-01-21T21:54:20.970Z,132.70
2023-01-21T21:56:48.736Z,132.73
2023-01-21T21:59:16.220Z,141.07
2023-01-21T22:01:46.194Z,140.10
2023-01-21T22:04:13.512Z,151.40
2023-01-21T22:06:40.988Z,144.20
2023-01-21T22:09:08.731Z,135.40
2023-01-21T22:11:36.113Z,146.53
2023-01-21T22:14:04.456Z,136.63
2023-01-21T22:16:32.303Z,133.57
2023-01-21T22:19:01.298Z,137.43
2023-01-21T22:21:34.123Z,142.80
2023-01-21T22:24:03.145Z,143.63
2023-01-21T22:26:31.002Z,131.47
2023-01-21T22:28:58.454Z,134.63
2023-01-21T22:31:30.108Z,139.23
2023-01-21T22:33:59.653Z,136.13
2023-01-21T22:36:29.875Z,131.87
2023-01-21T22:38:57.807Z,121.07
2023-01-21T22:41:25.856Z,136.80
2023-01-21T22:43:54.419Z,142.27
2023-01-21T22:46:30.132Z,134.40
2023-01-21T22:48:57.839Z,147.90
2023-01-21T22:51:25.190Z,170.53
2023-01-21T22:53:53.646Z,165.53
2023-01-21T22:56:39.848Z,137.33
2023-01-21T22:59:11.121Z,155.00
2023-01-21T23:01:41.027Z,166.37
2023-01-21T23:04:09.862Z,154.55
2023-01-21T23:06:37.825Z,158.87
2023-01-21T23:09:08.074Z,162.37
2023-01-21T23:11:38.461Z,149.00
2023-01-21T23:14:06.970Z,162.20
2023-01-21T23:16:34.172Z,141.80
2023-01-21T23:19:01.431Z,146.60
2023-01-21T23:21:29.117Z,150.40
2023-01-21T23:23:56.363Z,148.57
2023-01-21T23:26:23.588Z,142.17
2023-01-21T23:28:58.800Z,139.60
2023-01-21T23:31:26.188Z,124.37
2023-01-21T23:33:56.188Z,134.40
2023-01-21T23:36:23.705Z,147.40
2023-01-21T23:38:50.875Z,135.53
2023-01-21T23:41:21.182Z,126.73
2023-01-21T23:43:48.523Z,133.53
2023-01-21T23:46:19.540Z,135.17
2023-01-21T23:48:47.618Z,130.10
2023-01-21T23:51:16.813Z,117.17
2023-01-21T23:53:44.299Z,126.67
2023-01-21T23:56:17.341Z,131.23
2023-01-21T23:58:44.665Z,115.53
